Time;durP1;ratioP1;P1;durP2;ratioP2;P2;SDS_P1;SDS_P2;PMS_P1;PMS_P2;Temp;Humidity;BMP_temperature;BMP_pressure;BME280_temperature;BME280_humidity;BME280_pressure;Samples;Min_cycle;Max_cycle;Signal;HPM_P1;HPM_P2
2022/02/05 00:01:50;;;;;;;2.10;1.30;;;;;;;;;;5052630;28;20029;-64
2022/02/05 00:04:36;;;;;;;3.60;1.33;;;;;;;;;;5052540;28;20044;-64
2022/02/05 00:07:24;;;;;;;2.90;0.98;;;;;;;;;;5053171;28;20493;-62
2022/02/05 00:10:31;;;;;;;3.65;1.38;;;;;;;;;;5053085;28;20028;-62
2022/02/05 00:33:15;;;;;;;2.13;1.25;;;;;;;;;;5052180;28;20025;-69
2022/02/05 00:43:29;;;;;;;2.88;1.00;;;;;;;;;;5053295;28;20414;-69
2022/02/05 00:46:15;;;;;;;5.60;1.10;;;;;;;;;;5052759;28;20024;-68
2022/02/05 00:49:01;;;;;;;2.78;1.15;;;;;;;;;;5052343;28;20041;-67
2022/02/05 00:51:55;;;;;;;2.65;1.10;;;;;;;;;;5051978;28;20027;-68
2022/02/05 00:54:45;;;;;;;4.82;1.20;;;;;;;;;;5051571;28;20029;-69
2022/02/05 01:00:18;;;;;;;4.68;1.27;;;;;;;;;;5052022;28;20029;-70
2022/02/05 01:03:04;;;;;;;5.22;1.10;;;;;;;;;;5052662;28;20041;-71
2022/02/05 01:05:49;;;;;;;5.90;1.33;;;;;;;;;;5055750;28;20419;-71
2022/02/05 01:08:36;;;;;;;3.53;1.30;;;;;;;;;;5055465;28;20383;-70
2022/02/05 01:11:22;;;;;;;8.27;1.98;;;;;;;;;;5054343;28;20064;-70
2022/02/05 01:14:11;;;;;;;4.30;1.30;;;;;;;;;;5056151;28;20040;-67
2022/02/05 01:17:03;;;;;;;2.38;1.05;;;;;;;;;;5056811;28;20028;-67
2022/02/05 01:20:30;;;;;;;4.53;1.58;;;;;;;;;;5056609;28;20061;-68
2022/02/05 01:23:16;;;;;;;6.15;1.35;;;;;;;;;;5056428;28;20029;-68
2022/02/05 01:26:13;;;;;;;5.28;1.52;;;;;;;;;;5055993;28;20037;-68
2022/02/05 01:29:07;;;;;;;3.33;1.27;;;;;;;;;;5055325;28;20033;-68
2022/02/05 01:31:57;;;;;;;5.70;1.50;;;;;;;;;;5054989;28;20491;-68
2022/02/05 01:50:27;;;;;;;3.72;2.17;;;;;;;;;;5054949;28;20498;-69
2022/02/05 02:05:38;;;;;;;3.50;1.38;;;;;;;;;;5054095;28;20449;-68
2022/02/05 02:11:35;;;;;;;5.18;1.10;;;;;;;;;;5055695;28;20363;-63
2022/02/05 02:23:53;;;;;;;3.55;1.25;;;;;;;;;;5054371;28;20032;-62
2022/02/05 02:27:00;;;;;;;4.05;1.63;;;;;;;;;;5054370;28;20084;-69
2022/02/05 02:32:26;;;;;;;4.38;1.27;;;;;;;;;;5053911;28;20029;-69
2022/02/05 02:35:18;;;;;;;4.47;1.20;;;;;;;;;;5039409;28;20499;-67
2022/02/05 02:38:10;;;;;;;6.13;1.20;;;;;;;;;;5054643;28;20020;-67
2022/02/05 02:41:04;;;;;;;7.97;1.60;;;;;;;;;;5054610;28;20456;-68
2022/02/05 02:43:49;;;;;;;3.83;1.27;;;;;;;;;;5053623;28;20033;-68
2022/02/05 02:46:35;;;;;;;5.10;1.67;;;;;;;;;;5053312;28;20025;-68
2022/02/05 02:49:53;;;;;;;3.35;1.02;;;;;;;;;;5055205;28;20045;-68
2022/02/05 02:58:49;;;;;;;2.85;1.90;;;;;;;;;;5053514;28;20029;-69
2022/02/05 03:01:37;;;;;;;4.25;1.77;;;;;;;;;;5053343;28;20039;-68
2022/02/05 03:04:22;;;;;;;3.80;1.33;;;;;;;;;;5052252;28;20495;-69
2022/02/05 03:07:08;;;;;;;6.05;1.30;;;;;;;;;;5052910;28;20092;-67
2022/02/05 03:09:55;;;;;;;3.08;1.33;;;;;;;;;;5052680;28;20032;-68
2022/02/05 03:12:42;;;;;;;4.97;1.88;;;;;;;;;;5053804;28;20025;-68
2022/02/05 03:15:36;;;;;;;3.92;1.27;;;;;;;;;;5053849;28;20017;-68
2022/02/05 03:18:32;;;;;;;2.15;1.02;;;;;;;;;;5053825;28;20116;-67
2022/02/05 03:21:17;;;;;;;3.15;1.50;;;;;;;;;;5053210;28;20021;-69
2022/02/05 03:24:03;;;;;;;10.57;1.98;;;;;;;;;;5052518;28;20072;-71
2022/02/05 03:26:49;;;;;;;1.77;1.20;;;;;;;;;;5051858;28;20056;-71
2022/02/05 03:29:35;;;;;;;2.65;1.20;;;;;;;;;;5052886;28;20031;-71
2022/02/05 03:32:22;;;;;;;3.95;1.40;;;;;;;;;;5051924;28;20029;-72
2022/02/05 03:35:07;;;;;;;8.18;2.00;;;;;;;;;;5052940;28;20025;-71
2022/02/05 03:37:53;;;;;;;4.72;1.65;;;;;;;;;;5053504;28;20438;-70
2022/02/05 03:40:39;;;;;;;2.42;1.65;;;;;;;;;;5053314;28;20120;-70
2022/02/05 03:43:24;;;;;;;9.15;1.75;;;;;;;;;;5052907;28;20033;-68
2022/02/05 03:46:10;;;;;;;8.52;1.85;;;;;;;;;;5053332;28;20463;-68
2022/02/05 03:48:56;;;;;;;4.40;1.60;;;;;;;;;;5052150;28;20036;-69
2022/02/05 03:51:42;;;;;;;4.20;1.70;;;;;;;;;;5053282;28;20107;-68
2022/02/05 03:54:30;;;;;;;7.18;1.55;;;;;;;;;;5038126;28;20033;-68
2022/02/05 03:57:16;;;;;;;4.25;1.77;;;;;;;;;;5052624;28;20070;-68
2022/02/05 04:00:07;;;;;;;3.22;1.63;;;;;;;;;;5053333;28;20086;-67
2022/02/05 04:02:53;;;;;;;11.02;2.13;;;;;;;;;;5053070;28;20031;-64
2022/02/05 04:05:38;;;;;;;4.97;2.08;;;;;;;;;;5052174;28;20464;-62
2022/02/05 04:08:24;;;;;;;7.70;1.73;;;;;;;;;;5051988;28;20079;-62
2022/02/05 04:11:26;;;;;;;6.75;2.33;;;;;;;;;;5051772;28;20028;-62
2022/02/05 04:17:15;;;;;;;5.40;2.13;;;;;;;;;;5052399;28;20426;-70
2022/02/05 04:20:01;;;;;;;6.95;2.47;;;;;;;;;;5038158;28;20033;-69
2022/02/05 04:22:47;;;;;;;6.65;2.30;;;;;;;;;;5058138;28;20029;-69
2022/02/05 04:25:33;;;;;;;4.68;2.25;;;;;;;;;;5051663;28;20060;-67
2022/02/05 04:28:18;;;;;;;6.65;2.03;;;;;;;;;;5052492;28;20391;-67
2022/02/05 04:31:04;;;;;;;5.20;2.15;;;;;;;;;;5051858;28;20139;-68
2022/02/05 04:33:49;;;;;;;6.60;1.90;;;;;;;;;;5052651;28;20025;-70
2022/02/05 04:36:36;;;;;;;8.48;2.38;;;;;;;;;;5052230;28;20029;-68
2022/02/05 04:39:22;;;;;;;4.95;1.83;;;;;;;;;;5052794;28;20033;-70
2022/02/05 04:42:19;;;;;;;6.78;2.00;;;;;;;;;;5056783;28;20159;-69
2022/02/05 04:48:08;;;;;;;4.93;2.00;;;;;;;;;;5055755;28;20104;-70
2022/02/05 05:02:55;;;;;;;6.35;2.30;;;;;;;;;;5056325;28;20553;-62
2022/02/05 05:08:39;;;;;;;3.10;1.90;;;;;;;;;;5056378;28;20043;-62
2022/02/05 05:19:50;;;;;;;5.07;1.73;;;;;;;;;;5054845;28;20368;-70
2022/02/05 05:22:36;;;;;;;5.00;1.70;;;;;;;;;;5055934;28;20025;-70
2022/02/05 05:25:21;;;;;;;5.45;1.95;;;;;;;;;;5055275;28;20396;-69
2022/02/05 05:28:07;;;;;;;2.97;1.77;;;;;;;;;;5054861;28;20379;-69
2022/02/05 05:30:52;;;;;;;6.80;1.88;;;;;;;;;;5056081;28;20029;-69
2022/02/05 05:33:38;;;;;;;6.20;2.10;;;;;;;;;;5040786;28;20021;-67
2022/02/05 05:36:23;;;;;;;3.85;1.67;;;;;;;;;;5055588;28;20033;-68
2022/02/05 05:39:11;;;;;;;4.63;2.17;;;;;;;;;;5055616;28;20483;-68
2022/02/05 05:41:57;;;;;;;8.02;2.75;;;;;;;;;;5055437;28;20029;-68
2022/02/05 05:47:37;;;;;;;6.20;1.75;;;;;;;;;;5055531;28;20419;-67
2022/02/05 05:53:27;;;;;;;3.60;1.70;;;;;;;;;;5055514;28;20067;-68
2022/02/05 05:56:13;;;;;;;6.22;2.22;;;;;;;;;;5054678;28;20113;-69
2022/02/05 05:58:59;;;;;;;5.63;2.05;;;;;;;;;;5040791;28;20033;-68
2022/02/05 06:01:45;;;;;;;5.97;1.60;;;;;;;;;;5055258;28;20455;-68
2022/02/05 06:04:30;;;;;;;4.97;1.77;;;;;;;;;;5054227;28;20460;-69
2022/02/05 06:07:16;;;;;;;4.55;2.28;;;;;;;;;;5040422;28;20086;-69
2022/02/05 06:10:01;;;;;;;4.30;1.98;;;;;;;;;;5039591;28;20033;-69
2022/02/05 06:12:47;;;;;;;6.70;2.20;;;;;;;;;;5039786;28;20033;-68
2022/02/05 06:15:33;;;;;;;11.00;2.70;;;;;;;;;;5053743;28;20023;-68
2022/02/05 06:18:18;;;;;;;3.15;1.70;;;;;;;;;;5053187;28;20379;-69
2022/02/05 06:21:04;;;;;;;4.30;1.83;;;;;;;;;;5054109;28;20025;-68
2022/02/05 06:23:50;;;;;;;4.22;2.25;;;;;;;;;;5053446;28;20025;-68
2022/02/05 06:26:35;;;;;;;3.40;1.98;;;;;;;;;;5055067;28;20113;-68
2022/02/05 06:29:21;;;;;;;5.88;1.90;;;;;;;;;;5053751;28;20379;-67
2022/02/05 06:32:06;;;;;;;4.55;2.15;;;;;;;;;;5053681;28;20115;-68
2022/02/05 06:34:52;;;;;;;5.75;2.40;;;;;;;;;;5053651;28;20404;-67
2022/02/05 06:37:38;;;;;;;3.55;1.92;;;;;;;;;;5053338;28;20025;-67
2022/02/05 06:40:23;;;;;;;4.18;2.08;;;;;;;;;;5055064;28;20025;-67
2022/02/05 06:43:09;;;;;;;4.88;2.33;;;;;;;;;;5053451;28;20071;-68
2022/02/05 06:45:55;;;;;;;4.38;2.00;;;;;;;;;;5053165;28;20025;-68
2022/02/05 06:48:40;;;;;;;3.83;1.77;;;;;;;;;;5053134;28;20456;-68
2022/02/05 06:51:26;;;;;;;5.97;2.08;;;;;;;;;;5053180;28;20116;-69
2022/02/05 06:54:11;;;;;;;2.97;2.00;;;;;;;;;;5038706;28;20098;-67
2022/02/05 06:56:57;;;;;;;2.95;1.52;;;;;;;;;;5053737;28;20082;-68
2022/02/05 06:59:42;;;;;;;5.40;2.08;;;;;;;;;;5052969;28;20025;-68
2022/02/05 07:02:28;;;;;;;5.82;1.80;;;;;;;;;;5052530;28;20036;-61
2022/02/05 07:05:14;;;;;;;6.03;2.40;;;;;;;;;;5053836;28;20044;-62
2022/02/05 07:07:59;;;;;;;7.30;2.15;;;;;;;;;;5038944;28;20055;-62
2022/02/05 07:10:47;;;;;;;6.05;2.17;;;;;;;;;;5052890;28;20043;-62
2022/02/05 07:13:33;;;;;;;5.90;2.20;;;;;;;;;;5055074;28;20037;-63
2022/02/05 07:16:24;;;;;;;6.28;2.63;;;;;;;;;;5053787;28;20044;-62
2022/02/05 07:19:43;;;;;;;7.47;2.38;;;;;;;;;;5052713;28;20507;-62
2022/02/05 07:22:18;;;;;;;5.95;2.13;;;;;;;;;;5054475;28;20373;-62
2022/02/05 07:31:13;;;;;;;5.93;2.33;;;;;;;;;;5053091;28;20500;-62
2022/02/05 07:34:02;;;;;;;6.53;3.08;;;;;;;;;;5053524;28;20040;-61
2022/02/05 07:36:48;;;;;;;8.40;3.35;;;;;;;;;;5052115;28;20091;-62
2022/02/05 07:39:39;;;;;;;4.80;2.47;;;;;;;;;;5052468;28;20079;-70
2022/02/05 07:42:26;;;;;;;8.82;2.47;;;;;;;;;;5053969;28;20017;-68
2022/02/05 07:45:11;;;;;;;7.57;2.30;;;;;;;;;;5037925;28;20059;-67
2022/02/05 07:47:57;;;;;;;6.32;2.60;;;;;;;;;;5053202;28;20086;-68
2022/02/05 07:50:43;;;;;;;6.15;2.72;;;;;;;;;;5052438;28;20017;-67
2022/02/05 07:53:29;;;;;;;8.70;2.45;;;;;;;;;;5052267;28;20032;-68
2022/02/05 07:56:14;;;;;;;6.57;2.45;;;;;;;;;;5053025;28;20025;-69
2022/02/05 07:59:00;;;;;;;8.15;2.95;;;;;;;;;;5054181;28;20048;-65
2022/02/05 08:01:46;;;;;;;10.38;4.90;;;;;;;;;;5052769;28;20108;-61
2022/02/05 08:04:32;;;;;;;6.68;3.35;;;;;;;;;;5053470;28;20090;-64
2022/02/05 08:07:18;;;;;;;6.90;2.58;;;;;;;;;;5051371;28;20142;-60
2022/02/05 08:10:07;;;;;;;4.40;2.33;;;;;;;;;;5053100;28;20094;-61
2022/02/05 08:12:56;;;;;;;8.80;2.70;;;;;;;;;;5052748;28;20083;-68
2022/02/05 08:15:50;;;;;;;7.87;2.40;;;;;;;;;;5055901;28;20255;-69
2022/02/05 08:18:37;;;;;;;5.10;2.45;;;;;;;;;;5053182;28;20024;-61
2022/02/05 08:21:23;;;;;;;7.78;2.42;;;;;;;;;;5052315;28;20583;-62
2022/02/05 08:24:09;;;;;;;6.78;2.50;;;;;;;;;;5052894;28;20361;-62
2022/02/05 08:26:54;;;;;;;4.45;2.10;;;;;;;;;;5052192;28;20032;-61
2022/02/05 08:29:51;;;;;;;5.35;2.00;;;;;;;;;;5051891;28;20036;-60
2022/02/05 08:32:37;;;;;;;8.95;2.40;;;;;;;;;;5053560;28;20025;-62
2022/02/05 08:35:23;;;;;;;8.57;2.58;;;;;;;;;;5052321;28;20041;-68
2022/02/05 08:38:09;;;;;;;6.28;2.20;;;;;;;;;;5037720;28;20032;-62
2022/02/05 08:40:55;;;;;;;5.35;2.03;;;;;;;;;;5052862;28;20107;-62
2022/02/05 08:43:41;;;;;;;4.80;2.00;;;;;;;;;;5052472;28;20364;-62
2022/02/05 08:46:26;;;;;;;6.00;2.28;;;;;;;;;;5051973;28;20033;-63
2022/02/05 08:49:12;;;;;;;6.00;2.10;;;;;;;;;;5052718;28;20044;-61
2022/02/05 08:52:00;;;;;;;4.05;2.03;;;;;;;;;;5051642;28;20084;-62
2022/02/05 08:54:45;;;;;;;6.68;2.25;;;;;;;;;;5052416;28;20052;-62
2022/02/05 08:57:34;;;;;;;6.15;2.22;;;;;;;;;;5051377;28;20025;-68
2022/02/05 09:00:24;;;;;;;5.53;2.73;;;;;;;;;;5052723;28;20032;-68
2022/02/05 09:03:13;;;;;;;;;;;;;;;;;;5053029;28;20028;-69
2022/02/05 09:06:01;;;;;;;2.70;1.67;;;;;;;;;;5051684;28;20004;-66
2022/02/05 09:08:53;;;;;;;7.63;2.35;;;;;;;;;;5036839;28;20037;-66
2022/02/05 09:11:52;;;;;;;7.80;2.25;;;;;;;;;;5052260;28;20448;-64
2022/02/05 09:14:41;;;;;;;6.75;2.20;;;;;;;;;;5051900;28;20032;-67
2022/02/05 09:17:27;;;;;;;7.80;2.75;;;;;;;;;;5064076;28;20033;-66
2022/02/05 09:20:13;;;;;;;6.90;2.10;;;;;;;;;;5050739;28;20436;-66
2022/02/05 09:22:58;;;;;;;7.28;2.05;;;;;;;;;;5052281;28;20028;-66
2022/02/05 09:25:44;;;;;;;4.45;1.75;;;;;;;;;;5053257;28;20098;-67
2022/02/05 09:28:29;;;;;;;7.10;2.00;;;;;;;;;;5055000;28;20037;-68
2022/02/05 09:31:27;;;;;;;4.95;1.83;;;;;;;;;;5056026;28;20384;-64
2022/02/05 09:34:12;;;;;;;3.95;2.10;;;;;;;;;;5053942;28;20040;-68
2022/02/05 09:36:59;;;;;;;7.68;2.20;;;;;;;;;;5055847;28;20040;-66
2022/02/05 09:39:45;;;;;;;6.30;2.10;;;;;;;;;;5055526;28;20025;-67
2022/02/05 09:42:31;;;;;;;8.48;1.98;;;;;;;;;;5055655;28;20036;-67
2022/02/05 09:45:17;;;;;;;7.30;2.22;;;;;;;;;;5054302;28;20028;-69
2022/02/05 09:48:03;;;;;;;6.82;1.70;;;;;;;;;;5055252;28;20474;-73
2022/02/05 09:50:49;;;;;;;5.78;2.22;;;;;;;;;;5053726;28;20448;-74
2022/02/05 09:53:35;;;;;;;6.50;2.28;;;;;;;;;;5065912;28;20033;-73
2022/02/05 09:56:21;;;;;;;8.88;2.55;;;;;;;;;;5053826;28;20029;-70
2022/02/05 09:59:07;;;;;;;7.45;1.70;;;;;;;;;;5056030;28;20029;-70
2022/02/05 10:02:12;;;;;;;10.55;1.50;;;;;;;;;;5055844;28;20471;-69
2022/02/05 10:05:03;;;;;;;4.82;1.80;;;;;;;;;;5054580;28;20055;-62
2022/02/05 10:08:01;;;;;;;8.70;2.55;;;;;;;;;;5054503;28;20021;-61
2022/02/05 10:10:46;;;;;;;6.82;1.75;;;;;;;;;;5054078;28;20120;-65
2022/02/05 10:13:32;;;;;;;11.32;3.30;;;;;;;;;;5053823;28;20082;-67
2022/02/05 10:16:27;;;;;;;9.65;2.30;;;;;;;;;;5054888;28;20033;-68
2022/02/05 10:19:12;;;;;;;6.32;1.80;;;;;;;;;;5054188;28;20039;-66
2022/02/05 10:22:02;;;;;;;7.68;2.20;;;;;;;;;;5054218;28;20033;-65
2022/02/05 10:24:48;;;;;;;;;;;;;;;;;;5053877;28;20078;-60
2022/02/05 10:27:40;;;;;;;10.93;2.30;;;;;;;;;;5053546;28;20351;-60
2022/02/05 10:30:29;;;;;;;8.20;1.98;;;;;;;;;;5053173;28;20049;-59
2022/02/05 10:33:31;;;;;;;9.55;2.78;;;;;;;;;;5053405;28;20124;-57
2022/02/05 10:36:29;;;;;;;8.85;2.20;;;;;;;;;;5052580;28;20041;-58
2022/02/05 10:45:20;;;;;;;8.85;2.83;;;;;;;;;;5053233;28;20388;-63
2022/02/05 10:48:07;;;;;;;1999.90;999.90;;;;;;;;;;5053412;28;20061;-55
2022/02/05 10:50:54;;;;;;;10.95;1.85;;;;;;;;;;5053822;28;20112;-56
2022/02/05 10:53:54;;;;;;;1999.90;999.90;;;;;;;;;;5053428;28;20025;-57
2022/02/05 10:56:55;;;;;;;1999.90;999.90;;;;;;;;;;5065859;28;20021;-57
2022/02/05 11:05:10;;;;;;;1999.90;999.90;;;;;;;;;;5053688;28;20025;-57
2022/02/05 11:06:04;;;;;;;5.30;1.90;;;;;;;;;;5052606;28;20029;-64
2022/02/05 11:08:51;;;;;;;7.03;2.58;;;;;;;;;;5053383;28;20025;-63
2022/02/05 11:11:52;;;;;;;3.85;1.60;;;;;;;;;;5053289;28;20037;-73
2022/02/05 11:20:29;;;;;;;6.15;2.10;;;;;;;;;;5053792;28;20040;-70
2022/02/05 11:23:14;;;;;;;4.10;1.60;;;;;;;;;;5052498;28;20099;-62
2022/02/05 11:26:01;;;;;;;5.72;1.98;;;;;;;;;;5053811;28;20039;-61
2022/02/05 11:28:51;;;;;;;3.03;1.40;;;;;;;;;;5052674;28;20029;-62
2022/02/05 11:31:38;;;;;;;;;;;;;;;;;;5039203;28;20043;-61
2022/02/05 11:34:33;;;;;;;5.32;1.95;;;;;;;;;;5053803;28;19986;-61
2022/02/05 11:37:19;;;;;;;6.63;1.30;;;;;;;;;;5054076;28;20119;-62
2022/02/05 11:40:05;;;;;;;5.45;1.77;;;;;;;;;;5038888;28;20029;-68
2022/02/05 11:43:10;;;;;;;8.75;1.40;;;;;;;;;;5052816;28;20033;-61
2022/02/05 11:46:17;;;;;;;4.53;1.30;;;;;;;;;;5053676;28;20029;-61
2022/02/05 11:49:05;;;;;;;4.75;1.30;;;;;;;;;;5053477;28;20499;-59
2022/02/05 11:51:51;;;;;;;4.20;1.55;;;;;;;;;;5052876;28;20037;-63
2022/02/05 11:54:56;;;;;;;7.20;1.75;;;;;;;;;;5038255;28;20067;-61
2022/02/05 11:57:42;;;;;;;6.97;2.17;;;;;;;;;;5053091;28;20056;-67
2022/02/05 12:00:41;;;;;;;3.55;1.48;;;;;;;;;;5052168;28;20474;-71
2022/02/05 12:03:29;;;;;;;2.63;1.40;;;;;;;;;;5052666;28;20086;-69
2022/02/05 12:06:15;;;;;;;4.82;1.52;;;;;;;;;;5053288;28;20109;-69
2022/02/05 12:09:00;;;;;;;2.58;1.05;;;;;;;;;;5052067;28;20017;-70
2022/02/05 12:11:46;;;;;;;4.22;1.40;;;;;;;;;;5053764;28;20029;-68
2022/02/05 12:14:32;;;;;;;6.40;2.03;;;;;;;;;;5051962;28;20068;-71
2022/02/05 12:17:27;;;;;;;3.38;1.10;;;;;;;;;;5052467;28;20392;-72
2022/02/05 12:20:22;;;;;;;2.72;1.20;;;;;;;;;;5037374;28;20447;-65
2022/02/05 12:23:23;;;;;;;4.00;1.33;;;;;;;;;;5051725;28;20079;-61
2022/02/05 12:26:09;;;;;;;5.53;1.30;;;;;;;;;;5053632;28;20430;-61
2022/02/05 12:28:55;;;;;;;4.22;1.55;;;;;;;;;;5051845;28;20025;-62
2022/02/05 12:31:48;;;;;;;3.78;1.35;;;;;;;;;;5053084;28;20033;-62
2022/02/05 12:34:35;;;;;;;4.55;2.15;;;;;;;;;;5053588;28;20029;-69
2022/02/05 12:37:20;;;;;;;5.47;1.38;;;;;;;;;;5051639;28;20399;-69
2022/02/05 12:40:06;;;;;;;3.30;1.60;;;;;;;;;;5050956;28;20037;-67
2022/02/05 12:42:52;;;;;;;4.05;1.10;;;;;;;;;;5051665;28;20486;-68
2022/02/05 12:45:47;;;;;;;4.32;1.40;;;;;;;;;;5051982;28;20103;-68
2022/02/05 12:48:34;;;;;;;4.40;1.20;;;;;;;;;;5052549;28;20024;-67
2022/02/05 12:51:19;;;;;;;2.58;1.10;;;;;;;;;;5051584;28;20472;-69
2022/02/05 12:54:06;;;;;;;3.30;1.38;;;;;;;;;;5054076;28;20029;-62
2022/02/05 12:56:54;;;;;;;5.60;1.20;;;;;;;;;;5052490;28;20096;-68
2022/02/05 12:59:40;;;;;;;4.15;1.52;;;;;;;;;;5053138;28;20118;-67
2022/02/05 13:02:26;;;;;;;6.45;1.52;;;;;;;;;;5055267;28;20401;-59
2022/02/05 13:05:12;;;;;;;3.47;1.30;;;;;;;;;;5056131;28;20048;-62
2022/02/05 13:07:58;;;;;;;3.17;1.20;;;;;;;;;;5055647;28;20052;-61
2022/02/05 13:10:45;;;;;;;3.58;1.90;;;;;;;;;;5056738;28;20033;-59
2022/02/05 13:13:36;;;;;;;9.80;4.13;;;;;;;;;;5055742;28;20412;-59
2022/02/05 13:16:23;;;;;;;9.88;2.63;;;;;;;;;;5055568;28;20045;-61
2022/02/05 13:19:27;;;;;;;9.35;3.90;;;;;;;;;;5041008;28;20036;-59
2022/02/05 13:26:10;;;;;;;4.38;2.13;;;;;;;;;;5054828;28;20029;-61
2022/02/05 13:34:17;;;;;;;3.80;1.75;;;;;;;;;;5054817;28;20049;-68
2022/02/05 13:37:49;;;;;;;2.35;1.25;;;;;;;;;;5056063;28;20071;-67
2022/02/05 13:40:18;;;;;;;7.78;2.17;;;;;;;;;;5054583;28;20040;-67
2022/02/05 13:43:04;;;;;;;4.78;1.67;;;;;;;;;;5055188;28;20033;-67
2022/02/05 13:45:52;;;;;;;8.90;1.30;;;;;;;;;;5056261;28;20033;-67
2022/02/05 13:48:38;;;;;;;3.47;1.13;;;;;;;;;;5055311;28;20404;-65
2022/02/05 13:51:23;;;;;;;5.18;1.50;;;;;;;;;;5055525;28;20040;-64
2022/02/05 13:54:09;;;;;;;6.30;2.00;;;;;;;;;;5054148;28;20057;-65
2022/02/05 13:56:59;;;;;;;5.15;2.15;;;;;;;;;;5053870;28;20032;-65
2022/02/05 13:59:54;;;;;;;3.08;1.40;;;;;;;;;;5054101;28;20055;-67
2022/02/05 14:02:42;;;;;;;5.50;1.35;;;;;;;;;;5053982;28;20029;-66
2022/02/05 14:05:27;;;;;;;3.97;1.73;;;;;;;;;;5053338;28;20029;-62
2022/02/05 14:08:23;;;;;;;3.95;1.85;;;;;;;;;;5054931;28;20055;-69
2022/02/05 14:11:10;;;;;;;6.60;1.60;;;;;;;;;;5053268;28;20036;-69
2022/02/05 14:13:59;;;;;;;6.28;1.52;;;;;;;;;;5054081;28;20053;-67
2022/02/05 14:16:46;;;;;;;9.43;1.73;;;;;;;;;;5054167;28;20021;-70
2022/02/05 14:19:33;;;;;;;5.38;1.80;;;;;;;;;;5053108;28;20037;-71
2022/02/05 14:22:19;;;;;;;3.90;1.33;;;;;;;;;;5054168;28;20112;-70
2022/02/05 14:25:06;;;;;;;2.83;1.40;;;;;;;;;;5053402;28;20471;-63
2022/02/05 14:28:04;;;;;;;5.25;1.40;;;;;;;;;;5054193;28;20032;-65
2022/02/05 14:31:09;;;;;;;2.95;1.38;;;;;;;;;;5053947;28;20111;-62
2022/02/05 14:42:39;;;;;;;5.57;1.67;;;;;;;;;;5055036;28;19912;-62
2022/02/05 14:45:25;;;;;;;4.10;1.40;;;;;;;;;;5053119;28;20124;-61
2022/02/05 14:48:13;;;;;;;4.15;1.50;;;;;;;;;;5054549;28;20017;-60
2022/02/05 14:51:00;;;;;;;8.20;1.25;;;;;;;;;;5052590;28;20028;-63
2022/02/05 14:53:46;;;;;;;3.90;1.30;;;;;;;;;;5053141;28;20472;-61
2022/02/05 14:56:32;;;;;;;2.67;0.98;;;;;;;;;;5052953;28;20112;-61
2022/02/05 14:59:17;;;;;;;2.75;1.10;;;;;;;;;;5053020;28;20399;-62
2022/02/05 15:02:03;;;;;;;3.15;1.38;;;;;;;;;;5054835;28;20044;-62
2022/02/05 15:04:49;;;;;;;4.47;1.05;;;;;;;;;;5054462;28;20930;-64
2022/02/05 15:07:34;;;;;;;5.22;1.20;;;;;;;;;;5053042;28;20036;-65
2022/02/05 15:10:21;;;;;;;4.40;1.77;;;;;;;;;;5053504;28;20028;-61
2022/02/05 15:13:07;;;;;;;4.40;1.30;;;;;;;;;;5054066;28;20041;-60
2022/02/05 15:15:53;;;;;;;5.05;1.50;;;;;;;;;;5052976;28;20403;-63
2022/02/05 15:18:41;;;;;;;7.53;1.42;;;;;;;;;;5053887;28;20116;-62
2022/02/05 15:21:28;;;;;;;7.50;2.55;;;;;;;;;;5053944;28;20040;-78
2022/02/05 15:24:13;;;;;;;2.72;1.27;;;;;;;;;;5051981;28;20448;-62
2022/02/05 15:26:59;;;;;;;4.00;1.50;;;;;;;;;;5052378;28;20107;-62
2022/02/05 15:29:45;;;;;;;3.70;1.15;;;;;;;;;;5039423;28;20116;-64
2022/02/05 15:32:30;;;;;;;3.78;1.60;;;;;;;;;;5052434;28;20044;-63
2022/02/05 15:35:16;;;;;;;3.13;1.50;;;;;;;;;;5053528;28;20033;-62
2022/02/05 15:38:10;;;;;;;4.28;1.38;;;;;;;;;;5052529;28;20035;-62
2022/02/05 15:43:53;;;;;;;6.13;1.67;;;;;;;;;;5052773;28;20021;-63
2022/02/05 15:46:39;;;;;;;4.05;1.40;;;;;;;;;;5052665;28;20037;-64
2022/02/05 15:49:25;;;;;;;7.10;1.60;;;;;;;;;;5052131;28;20091;-64
2022/02/05 15:52:12;;;;;;;4.57;1.20;;;;;;;;;;5053378;28;20503;-64
2022/02/05 15:55:00;;;;;;;4.22;1.52;;;;;;;;;;5053234;28;20036;-64
2022/02/05 15:58:08;;;;;;;3.60;1.60;;;;;;;;;;5037876;28;20021;-64
2022/02/05 16:00:53;;;;;;;3.92;1.73;;;;;;;;;;5052719;28;20025;-72
2022/02/05 16:03:39;;;;;;;8.63;2.72;;;;;;;;;;5052293;28;20033;-73
2022/02/05 16:06:25;;;;;;;4.75;2.33;;;;;;;;;;5051934;28;20060;-73
2022/02/05 16:09:10;;;;;;;7.38;2.22;;;;;;;;;;5053705;28;20056;-71
2022/02/05 16:11:57;;;;;;;5.38;1.45;;;;;;;;;;5051737;28;20033;-71
2022/02/05 16:14:42;;;;;;;5.13;1.50;;;;;;;;;;5051431;28;20025;-65
2022/02/05 16:17:28;;;;;;;5.25;1.52;;;;;;;;;;5065144;28;20028;-61
2022/02/05 16:20:14;;;;;;;9.05;1.90;;;;;;;;;;5051853;28;20375;-62
2022/02/05 16:22:59;;;;;;;5.97;1.90;;;;;;;;;;5053428;28;20108;-62
2022/02/05 16:25:45;;;;;;;6.53;1.70;;;;;;;;;;5037229;28;20033;-60
2022/02/05 16:28:34;;;;;;;6.65;1.42;;;;;;;;;;5051717;28;20025;-61
2022/02/05 16:31:20;;;;;;;7.60;2.33;;;;;;;;;;5052854;28;20048;-61
2022/02/05 16:34:12;;;;;;;7.93;2.47;;;;;;;;;;5052774;28;20392;-72
2022/02/05 16:36:59;;;;;;;8.05;1.63;;;;;;;;;;5056037;28;20017;-77
2022/02/05 16:39:45;;;;;;;5.93;1.50;;;;;;;;;;5058961;28;20032;-77
2022/02/05 16:42:33;;;;;;;7.85;2.25;;;;;;;;;;5056307;28;20047;-78
2022/02/05 16:45:21;;;;;;;5.65;1.55;;;;;;;;;;5055622;28;20040;-78
2022/02/05 16:48:07;;;;;;;6.50;2.00;;;;;;;;;;5056733;28;20017;-77
2022/02/05 16:50:53;;;;;;;7.22;2.00;;;;;;;;;;5056090;28;20090;-73
2022/02/05 16:53:38;;;;;;;8.52;1.92;;;;;;;;;;5042115;28;20025;-72
2022/02/05 16:56:29;;;;;;;4.78;1.80;;;;;;;;;;5055937;28;20033;-72
2022/02/05 16:59:14;;;;;;;5.57;1.52;;;;;;;;;;5055821;28;20383;-72
2022/02/05 17:02:00;;;;;;;2.67;1.42;;;;;;;;;;5056414;28;20044;-72
2022/02/05 17:04:45;;;;;;;5.18;1.67;;;;;;;;;;5040734;28;20029;-74
2022/02/05 17:07:32;;;;;;;11.02;2.33;;;;;;;;;;5056381;28;20037;-72
2022/02/05 17:10:18;;;;;;;8.20;1.67;;;;;;;;;;5056223;28;20025;-71
2022/02/05 17:13:05;;;;;;;8.70;2.47;;;;;;;;;;5055491;28;20033;-72
2022/02/05 17:15:51;;;;;;;5.82;1.50;;;;;;;;;;5056492;28;20037;-74
2022/02/05 17:18:37;;;;;;;5.35;2.17;;;;;;;;;;5056199;28;20472;-72
2022/02/05 17:21:23;;;;;;;8.68;2.00;;;;;;;;;;5055450;28;20029;-73
2022/02/05 17:24:09;;;;;;;8.45;2.55;;;;;;;;;;5055403;28;20025;-75
2022/02/05 17:26:55;;;;;;;8.20;2.03;;;;;;;;;;5056880;28;20419;-76
2022/02/05 17:29:41;;;;;;;4.68;1.98;;;;;;;;;;5055936;28;20476;-70
2022/02/05 17:32:26;;;;;;;7.30;2.30;;;;;;;;;;5041212;28;20025;-69
2022/02/05 17:35:12;;;;;;;7.00;2.33;;;;;;;;;;5040683;28;20086;-68
2022/02/05 17:37:58;;;;;;;11.30;2.85;;;;;;;;;;5054576;28;20025;-71
2022/02/05 17:40:44;;;;;;;7.47;1.95;;;;;;;;;;5055870;28;20372;-68
2022/02/05 17:43:32;;;;;;;6.38;2.55;;;;;;;;;;5055086;28;20533;-69
2022/02/05 17:46:18;;;;;;;9.27;2.60;;;;;;;;;;5054351;28;20068;-63
2022/02/05 17:49:03;;;;;;;8.45;1.83;;;;;;;;;;5055151;28;20025;-63
2022/02/05 17:51:49;;;;;;;6.82;1.90;;;;;;;;;;5040404;28;20463;-61
2022/02/05 17:54:39;;;;;;;6.47;1.85;;;;;;;;;;5054898;28;20041;-63
2022/02/05 17:57:25;;;;;;;10.15;2.60;;;;;;;;;;5054208;28;20123;-61
2022/02/05 18:00:12;;;;;;;6.68;2.42;;;;;;;;;;5053560;28;20064;-61
2022/02/05 18:03:04;;;;;;;11.80;2.40;;;;;;;;;;5054795;28;20032;-63
2022/02/05 18:05:54;;;;;;;6.88;3.22;;;;;;;;;;5055350;28;20476;-63
2022/02/05 18:08:56;;;;;;;;;;;;;;;;;;5055300;28;20066;-69
2022/02/05 18:11:55;;;;;;;7.28;2.55;;;;;;;;;;5054534;28;20329;-70
2022/02/05 18:17:26;;;;;;;15.88;4.90;;;;;;;;;;5055135;28;20036;-70
2022/02/05 18:20:12;;;;;;;11.68;3.88;;;;;;;;;;5053700;28;20047;-71
2022/02/05 18:23:00;;;;;;;11.30;3.72;;;;;;;;;;5053954;28;20392;-71
2022/02/05 18:25:46;;;;;;;9.38;3.38;;;;;;;;;;5054423;28;20124;-61
2022/02/05 18:28:31;;;;;;;12.48;3.45;;;;;;;;;;5040374;28;20427;-65
2022/02/05 18:31:17;;;;;;;12.52;4.45;;;;;;;;;;5054230;28;20033;-63
2022/02/05 18:34:03;;;;;;;11.73;4.15;;;;;;;;;;5054368;28;20033;-63
2022/02/05 18:36:50;;;;;;;8.27;3.42;;;;;;;;;;5053429;28;20033;-65
2022/02/05 18:39:41;;;;;;;7.78;3.38;;;;;;;;;;5054228;28;20492;-64
2022/02/05 18:42:30;;;;;;;8.52;3.90;;;;;;;;;;5039678;28;20041;-70
2022/02/05 18:45:15;;;;;;;13.95;3.40;;;;;;;;;;5054659;28;20127;-73
2022/02/05 18:48:01;;;;;;;10.52;3.58;;;;;;;;;;5054376;28;20375;-71
2022/02/05 18:50:48;;;;;;;10.65;3.75;;;;;;;;;;5054518;28;20029;-70
2022/02/05 18:53:33;;;;;;;9.10;3.80;;;;;;;;;;5054349;28;20494;-71
2022/02/05 18:56:20;;;;;;;15.55;4.13;;;;;;;;;;5039265;28;20117;-71
2022/02/05 18:59:06;;;;;;;10.05;4.18;;;;;;;;;;5053497;28;20028;-70
2022/02/05 19:02:19;;;;;;;11.27;3.80;;;;;;;;;;5054991;28;20037;-71
2022/02/05 19:19:59;;;;;;;12.60;4.03;;;;;;;;;;5052778;28;20025;-70
2022/02/05 19:22:44;;;;;;;6.88;3.53;;;;;;;;;;5053591;28;20032;-71
2022/02/05 19:25:30;;;;;;;8.82;3.53;;;;;;;;;;5052632;28;20438;-71
2022/02/05 19:28:16;;;;;;;7.90;3.70;;;;;;;;;;5054108;28;20082;-72
2022/02/05 19:31:02;;;;;;;11.10;4.18;;;;;;;;;;5052075;28;20383;-70
2022/02/05 19:33:48;;;;;;;9.13;3.70;;;;;;;;;;5053233;28;20024;-71
2022/02/05 19:36:33;;;;;;;7.93;3.70;;;;;;;;;;5052367;28;20387;-63
2022/02/05 19:39:19;;;;;;;53.15;36.35;;;;;;;;;;5053082;28;20033;-62
2022/02/05 19:42:04;;;;;;;9.40;5.25;;;;;;;;;;5052858;28;20063;-70
2022/02/05 19:44:54;;;;;;;11.63;4.60;;;;;;;;;;5052754;28;20079;-70